< < Back
Terminal Aerodrome Forecast


Current Version              Previous Versions:   1  2  3  4  5  6  7  8  9  

Terminal Aerodrome Forecast

440
FTUS42 KCHS 311700
TAFCHS
TAF
KCHS 311731Z 3118/0118 01007KT P6SM SCT045
     FM312000 33007KT P6SM FEW150
     FM010000 VRB04KT P6SM SKC
     FM010800 27011KT P6SM SCT050
     FM011400 28018G25KT P6SM BKN040=

Latest METAR

888
SAUS80 KWBC 311800 RRA
MTRCHS
METAR KCHS 311756Z 06007KT 10SM FEW050 22/06 A2982 RMK AO2 SLP096
T02170056 10217 20128 58028


USA.gov is the U.S. government's official web portal to all federal, state and local government web resources and services.